createdAt,value
2023-02-07T00:04:28.695Z,100299.00
2023-02-07T00:09:50.504Z,100305.00
2023-02-07T00:15:12.021Z,100305.00
2023-02-07T00:20:33.638Z,100307.00
2023-02-07T00:25:55.074Z,100323.00
2023-02-07T00:31:20.140Z,100331.00
2023-02-07T00:36:42.603Z,100319.00
2023-02-07T00:42:04.186Z,100330.00
2023-02-07T00:47:25.499Z,100324.00
2023-02-07T00:52:46.862Z,100318.00
2023-02-07T00:58:08.143Z,100315.00
2023-02-07T01:03:29.514Z,100317.00
2023-02-07T01:08:51.036Z,100319.00
2023-02-07T01:14:12.425Z,100315.00
2023-02-07T01:19:33.876Z,100295.00
2023-02-07T01:24:56.178Z,100321.00
2023-02-07T01:30:17.657Z,100297.00
2023-02-07T01:35:39.617Z,100304.00
2023-02-07T01:41:01.551Z,100285.00
2023-02-07T01:46:22.953Z,100299.00
2023-02-07T01:51:56.363Z,100287.00
2023-02-07T01:57:21.285Z,100283.00
2023-02-07T02:02:43.264Z,100274.00
2023-02-07T02:08:07.146Z,100287.00
2023-02-07T02:13:45.227Z,100280.00
2023-02-07T02:19:23.675Z,100278.00
2023-02-07T02:25:23.013Z,100256.00
2023-02-07T02:31:10.966Z,100266.00
2023-02-07T02:36:56.905Z,100263.00
2023-02-07T02:42:27.529Z,100270.00
2023-02-07T02:47:51.016Z,100262.00
2023-02-07T02:53:14.088Z,100258.00
2023-02-07T02:59:00.482Z,100260.00
2023-02-07T03:04:45.962Z,100262.00
2023-02-07T03:10:31.501Z,100275.00
2023-02-07T03:16:11.116Z,100271.00
2023-02-07T03:21:40.122Z,100276.00
2023-02-07T03:27:24.024Z,100277.00
2023-02-07T03:32:52.627Z,100262.00
2023-02-07T03:38:14.887Z,100256.00
2023-02-07T03:43:38.806Z,100251.00
2023-02-07T03:49:00.033Z,100262.00
2023-02-07T03:54:21.758Z,100270.00
2023-02-07T03:59:43.334Z,100271.00
2023-02-07T04:05:05.105Z,100256.00
2023-02-07T04:10:26.707Z,100275.00
2023-02-07T04:15:48.291Z,100270.00
2023-02-07T04:21:10.156Z,100261.00
2023-02-07T04:26:32.878Z,100261.00
2023-02-07T04:31:54.401Z,100273.00
2023-02-07T04:37:16.498Z,100268.00
2023-02-07T04:42:37.755Z,100279.00
2023-02-07T04:47:59.415Z,100271.00
2023-02-07T04:53:20.962Z,100275.00
2023-02-07T04:58:42.181Z,100289.00
2023-02-07T05:04:03.746Z,100296.00
2023-02-07T05:09:25.637Z,100318.00
2023-02-07T05:14:47.180Z,100324.00
2023-02-07T05:20:09.227Z,100320.00
2023-02-07T05:25:31.030Z,100331.00
2023-02-07T05:30:56.937Z,100320.00
2023-02-07T05:36:18.360Z,100309.00
2023-02-07T05:41:39.686Z,100315.00
2023-02-07T05:47:00.939Z,100314.00
2023-02-07T05:52:22.103Z,100319.00
2023-02-07T05:57:44.636Z,100315.00
2023-02-07T06:03:06.062Z,100302.00
2023-02-07T06:08:27.645Z,100312.00
2023-02-07T06:13:49.139Z,100321.00
2023-02-07T06:19:14.015Z,100299.00
2023-02-07T06:24:35.581Z,100293.00
2023-02-07T06:29:57.115Z,100281.00
2023-02-07T06:35:18.688Z,100289.00
2023-02-07T06:40:40.272Z,100293.00
2023-02-07T06:46:01.998Z,100302.00
2023-02-07T06:51:23.875Z,100294.00
2023-02-07T06:56:45.204Z,100291.00
2023-02-07T07:02:07.002Z,100293.00
2023-02-07T07:07:28.706Z,100296.00
2023-02-07T07:12:50.632Z,100293.00
2023-02-07T07:18:11.881Z,100300.00
2023-02-07T07:23:33.466Z,100296.00
2023-02-07T07:28:58.435Z,100319.00
2023-02-07T07:34:20.155Z,100308.00
2023-02-07T07:39:44.268Z,100309.00
2023-02-07T07:45:06.099Z,100314.00
2023-02-07T07:50:28.630Z,100316.00
2023-02-07T07:55:54.729Z,100315.00
2023-02-07T08:01:16.283Z,100324.00
2023-02-07T08:06:37.932Z,100316.00
2023-02-07T08:11:59.510Z,100330.00
2023-02-07T08:17:21.158Z,100325.00
2023-02-07T08:22:42.629Z,100333.00
2023-02-07T08:28:04.888Z,100339.00
2023-02-07T08:33:26.724Z,100326.00
2023-02-07T08:38:49.263Z,100346.00
2023-02-07T08:44:11.717Z,100345.00
2023-02-07T08:49:32.941Z,100354.00
2023-02-07T08:54:54.582Z,100357.00
2023-02-07T09:00:16.846Z,100354.00
2023-02-07T09:05:38.450Z,100363.00
2023-02-07T09:11:00.019Z,100375.00
2023-02-07T09:16:23.441Z,100369.00
2023-02-07T09:21:45.209Z,100364.00
2023-02-07T09:27:06.856Z,100367.00
2023-02-07T09:32:28.265Z,100368.00
2023-02-07T09:37:52.551Z,100360.00
2023-02-07T09:43:38.102Z,100370.00
2023-02-07T09:49:08.171Z,100367.00
2023-02-07T09:54:49.221Z,100344.00
2023-02-07T10:00:32.960Z,100338.00
2023-02-07T10:06:12.818Z,100355.00
2023-02-07T10:11:48.042Z,100344.00
2023-02-07T10:17:19.261Z,100343.00
2023-02-07T10:23:02.175Z,100338.00
2023-02-07T10:28:57.450Z,100323.00
2023-02-07T10:34:41.634Z,100336.00
2023-02-07T10:40:21.254Z,100325.00
2023-02-07T10:45:43.368Z,100323.00
2023-02-07T10:51:26.776Z,100324.00
2023-02-07T10:57:02.221Z,100318.00
2023-02-07T11:02:32.656Z,100304.00
2023-02-07T11:08:15.914Z,100291.00
2023-02-07T11:13:49.611Z,100298.00
2023-02-07T11:19:24.657Z,100309.00
2023-02-07T11:24:48.198Z,100296.00
2023-02-07T11:30:19.286Z,100300.00
2023-02-07T11:35:43.440Z,100294.00
2023-02-07T11:41:07.068Z,100297.00
2023-02-07T11:46:36.268Z,100278.00
2023-02-07T11:52:01.582Z,100284.00
2023-02-07T11:57:24.969Z,100281.00
2023-02-07T12:02:52.317Z,100272.00
2023-02-07T12:08:18.398Z,100276.00
2023-02-07T12:13:46.588Z,100275.00
2023-02-07T12:19:28.289Z,100280.00
2023-02-07T12:25:13.636Z,100294.00
2023-02-07T12:30:58.643Z,100299.00
2023-02-07T12:36:36.223Z,100301.00
2023-02-07T12:42:20.836Z,100287.00
2023-02-07T12:48:00.883Z,100270.00
2023-02-07T12:53:31.122Z,100271.00
2023-02-07T12:59:00.589Z,100278.00
2023-02-07T13:04:50.204Z,100282.00
2023-02-07T13:10:26.163Z,100283.00
2023-02-07T13:16:02.432Z,100281.00
2023-02-07T13:21:29.301Z,100298.00
2023-02-07T13:27:07.701Z,100284.00
2023-02-07T13:32:29.444Z,100275.00
2023-02-07T13:38:02.908Z,100271.00
2023-02-07T13:44:09.335Z,100274.00
2023-02-07T13:49:50.369Z,100272.00
2023-02-07T13:55:32.821Z,100279.00
2023-02-07T14:01:15.518Z,100271.00
2023-02-07T14:07:12.050Z,100269.00
2023-02-07T14:12:40.958Z,100271.00
2023-02-07T14:18:26.814Z,100264.00
2023-02-07T14:24:10.133Z,100274.00
2023-02-07T14:29:31.583Z,100280.00
2023-02-07T14:35:17.201Z,100272.00
2023-02-07T14:40:44.364Z,100257.00
2023-02-07T14:46:11.410Z,100249.00
2023-02-07T14:51:41.139Z,100255.00
2023-02-07T14:57:17.276Z,100250.00
2023-02-07T15:02:40.174Z,100233.00
2023-02-07T15:08:21.619Z,100230.00
2023-02-07T15:13:46.081Z,100226.00
2023-02-07T15:19:26.009Z,100230.00
2023-02-07T15:24:51.818Z,100220.00
2023-02-07T15:30:20.318Z,100218.00
2023-02-07T15:35:41.963Z,100213.00
2023-02-07T15:41:04.751Z,100218.00
2023-02-07T15:46:42.829Z,100223.00
2023-02-07T15:52:14.463Z,100226.00
2023-02-07T15:57:43.098Z,100231.00
2023-02-07T16:03:08.364Z,100241.00
2023-02-07T16:08:33.481Z,100241.00
2023-02-07T16:14:10.886Z,100265.00
2023-02-07T16:19:33.478Z,100273.00
2023-02-07T16:24:54.927Z,100271.00
2023-02-07T16:30:20.915Z,100258.00
2023-02-07T16:35:42.679Z,100261.00
2023-02-07T16:41:06.059Z,100277.00
2023-02-07T16:46:27.609Z,100291.00
2023-02-07T16:51:49.055Z,100296.00
2023-02-07T16:57:11.821Z,100310.00
2023-02-07T17:02:33.405Z,100306.00
2023-02-07T17:07:54.781Z,100313.00
2023-02-07T17:13:16.466Z,100332.00
2023-02-07T17:18:38.068Z,100320.00
2023-02-07T17:23:59.682Z,100309.00
2023-02-07T17:29:21.315Z,100317.00
2023-02-07T17:34:42.968Z,100330.00
2023-02-07T17:40:14.002Z,100330.00
2023-02-07T17:45:37.194Z,100335.00
2023-02-07T17:50:58.725Z,100321.00
2023-02-07T17:56:24.494Z,100320.00
2023-02-07T18:01:45.791Z,100326.00
2023-02-07T18:07:07.253Z,100331.00
2023-02-07T18:12:28.785Z,100321.00
2023-02-07T18:17:51.840Z,100321.00
2023-02-07T18:23:13.612Z,100318.00
2023-02-07T18:28:35.143Z,100321.00
2023-02-07T18:33:56.576Z,100335.00
2023-02-07T18:39:18.281Z,100337.00
2023-02-07T18:44:40.959Z,100335.00
2023-02-07T18:50:02.461Z,100349.00
2023-02-07T18:55:24.007Z,100346.00
2023-02-07T19:00:45.498Z,100349.00
2023-02-07T19:06:08.437Z,100344.00
2023-02-07T19:11:32.739Z,100348.00
2023-02-07T19:16:56.011Z,100351.00
2023-02-07T19:22:26.676Z,100343.00
2023-02-07T19:27:51.487Z,100357.00
2023-02-07T19:33:12.972Z,100350.00
2023-02-07T19:38:34.889Z,100361.00
2023-02-07T19:43:56.367Z,100351.00
2023-02-07T19:49:17.894Z,100340.00
2023-02-07T19:54:39.070Z,100330.00
2023-02-07T20:00:00.587Z,100321.00
2023-02-07T20:05:22.124Z,100334.00
2023-02-07T20:10:45.105Z,100332.00
2023-02-07T20:16:13.260Z,100316.00
2023-02-07T20:21:37.078Z,100319.00
2023-02-07T20:26:58.393Z,100312.00
2023-02-07T20:32:20.037Z,100313.00
2023-02-07T20:37:41.432Z,100305.00
2023-02-07T20:43:02.913Z,100309.00
2023-02-07T20:48:24.383Z,100310.00
2023-02-07T20:53:45.984Z,100318.00
2023-02-07T20:59:08.103Z,100325.00
2023-02-07T21:04:30.177Z,100314.00
2023-02-07T21:09:51.776Z,100315.00
2023-02-07T21:15:13.282Z,100312.00
2023-02-07T21:20:37.537Z,100337.00
2023-02-07T21:26:08.024Z,100325.00
2023-02-07T21:31:31.191Z,100321.00
2023-02-07T21:36:57.714Z,100316.00
2023-02-07T21:42:18.861Z,100301.00
2023-02-07T21:47:40.381Z,100308.00
2023-02-07T21:53:01.879Z,100298.00
2023-02-07T21:58:23.489Z,100303.00
2023-02-07T22:03:47.240Z,100287.00
2023-02-07T22:09:09.625Z,100285.00
2023-02-07T22:14:32.366Z,100293.00
2023-02-07T22:19:53.924Z,100296.00
2023-02-07T22:25:15.455Z,100291.00
2023-02-07T22:30:43.323Z,100284.00
2023-02-07T22:36:05.474Z,100274.00
2023-02-07T22:41:27.147Z,100268.00
2023-02-07T22:46:48.381Z,100258.00
2023-02-07T22:52:09.891Z,100264.00
2023-02-07T22:57:31.494Z,100257.00
2023-02-07T23:02:52.650Z,100252.00
2023-02-07T23:08:13.945Z,100246.00
2023-02-07T23:13:35.340Z,100264.00
2023-02-07T23:19:02.471Z,100272.00
2023-02-07T23:24:24.052Z,100277.00
2023-02-07T23:29:45.476Z,100270.00
2023-02-07T23:35:07.420Z,100277.00
2023-02-07T23:40:29.493Z,100285.00
2023-02-07T23:45:51.143Z,100279.00
2023-02-07T23:51:13.931Z,100297.00
2023-02-07T23:56:35.421Z,100286.00
